Impacts TAF Board
For situational awareness. Not to be used for flight planning purposes.
IDs:

KCVG - Cincinnati Intl, KY, US

Issued at 0538 UTC 21 Sep 2018
Updated at 0834 UTC 21 Sep 2018
Potential Impact None Slight Moderate High
Time0752Z 21/09Z 21/10Z 21/11Z 21/12Z 21/13Z 21/14Z 21/15Z 21/16Z 21/17Z 21/18Z 21/19Z 21/20Z 21/21Z>>
Type OBS PRVL PRVL PRVL PRVL PRVL PRVL PRVL PRVL PRVL PRVL PRVL PRVL PRVL
  [TEMP]  
VIS 10 >6 >6 >6 >6 >6 >6 >6 >6 >6 >6 >6 >6 >6
  [3]  
CIG -- -- -- -- -- -- -- -- -- -- -- -- -- --
  [50]  
Cover CLR SKC SKC SKC SKC SKC SKC SKC SKC SKC SCT SCT SCT SCT
  [BKN]  
FltCat VFR VFR VFR VFR VFR VFR VFR VFR VFR VFR VFR VFR VFR VFR
  [MVFR]  
WX -- -- -- -- -- -- -- -- -- -- VCSH VCSH VCSH VCSH
  [-TSRA]  
WDir 190 190 190 190 190 190 190 190 190 190 230 230 230 230
[230]
WSpd 9 7 7 7 7 7 7 7 7 7 14 14 14 14
  [14]  
WGst -- -- -- -- -- -- -- -- -- -- 22 22 22 22
  [22]  
Raw TAF
KCVG 210538Z 2106/2212 19007KT P6SM SKC
  FM211800 23014G22KT P6SM VCSH SCT060 SCT200
  TEMPO 2121/2122 3SM -TSRA BKN050CB
  FM212200 27010KT P6SM VCTS BKN040CB OVC250
  FM220100 33011KT P6SM SCT012 SCT060 OVC250
  FM220400 03012KT P6SM SCT012 OVC250


Raw METAR
KCVG 210752Z 19009KT 10SM CLR 24/21 A3002 RMK AO2 SLP154 T02440211
KCVG 210652Z 19006KT 10SM CLR 24/21 A3003 RMK AO2 SLP155 T02390211
KCVG 210552Z 19008KT 10SM CLR 24/21 A3002 RMK AO2 SLP155 T02440206 10267 20244 51003

METAR Board
Radar Display
Forecast Discussion
For situational awareness. Not to be used for flight planning purposes.